Time;durP1;ratioP1;P1;durP2;ratioP2;P2;SDS_P1;SDS_P2;PMS_P1;PMS_P2;Temp;Humidity;BMP_temperature;BMP_pressure;BME280_temperature;BME280_humidity;BME280_pressure;Samples;Min_cycle;Max_cycle;Signal;HPM_P1;HPM_P2
2022/03/28 00:00:36;;;;;;;5.30;2.90;;;;;;;;;;4966947;28;20110;-72
2022/03/28 00:03:03;;;;;;;8.43;2.65;;;;;;;;;;4971519;28;20035;-75
2022/03/28 00:05:29;;;;;;;7.60;2.92;;;;;;;;;;4972524;28;20085;-73
2022/03/28 00:08:01;;;;;;;10.48;2.70;;;;;;;;;;4972593;28;20101;-73
2022/03/28 00:10:29;;;;;;;6.78;3.17;;;;;;;;;;4966280;28;20421;-72
2022/03/28 00:12:55;;;;;;;15.52;8.55;;;;;;;;;;5034214;28;20125;-75
2022/03/28 00:15:29;;;;;;;8.15;3.38;;;;;;;;;;5052686;28;20040;-79
2022/03/28 00:17:58;;;;;;;6.60;2.70;;;;;;;;;;5053152;28;20056;-76
2022/03/28 00:20:30;;;;;;;9.68;2.67;;;;;;;;;;5053831;28;20021;-73
2022/03/28 00:22:56;;;;;;;8.73;3.00;;;;;;;;;;5034096;28;20509;-74
2022/03/28 00:25:22;;;;;;;11.52;2.78;;;;;;;;;;5053904;28;20025;-74
2022/03/28 00:27:48;;;;;;;7.55;3.10;;;;;;;;;;5052718;28;20029;-74
2022/03/28 00:30:14;;;;;;;7.10;3.00;;;;;;;;;;5051656;28;20122;-79
2022/03/28 00:32:41;;;;;;;9.05;2.80;;;;;;;;;;5053121;28;20074;-74
2022/03/28 00:35:10;;;;;;;7.90;2.75;;;;;;;;;;5053677;28;20086;-71
2022/03/28 00:37:38;;;;;;;10.25;3.03;;;;;;;;;;5033660;28;20537;-73
2022/03/28 00:40:05;;;;;;;6.47;3.38;;;;;;;;;;5050040;28;20033;-75
2022/03/28 00:42:31;;;;;;;6.72;3.50;;;;;;;;;;5052855;28;20033;-76
2022/03/28 00:45:10;;;;;;;6.20;3.78;;;;;;;;;;5050820;28;20043;-75
2022/03/28 00:47:36;;;;;;;6.28;3.28;;;;;;;;;;5034610;28;20077;-73
2022/03/28 00:50:05;;;;;;;7.07;2.92;;;;;;;;;;5053258;28;20116;-73
2022/03/28 00:52:42;;;;;;;4.38;2.38;;;;;;;;;;5053837;28;20087;-82
2022/03/28 00:55:08;;;;;;;6.15;2.58;;;;;;;;;;5035254;28;20040;-71
2022/03/28 00:57:34;;;;;;;7.25;3.80;;;;;;;;;;5051704;28;20072;-72
2022/03/28 01:00:04;;;;;;;8.82;3.38;;;;;;;;;;5052805;28;20053;-78
2022/03/28 01:02:34;;;;;;;7.88;3.40;;;;;;;;;;5052340;28;20025;-71
2022/03/28 01:05:00;;;;;;;7.93;4.28;;;;;;;;;;5051776;28;20095;-73
2022/03/28 01:07:29;;;;;;;14.38;3.40;;;;;;;;;;5052053;28;20052;-73
2022/03/28 01:09:56;;;;;;;9.50;2.88;;;;;;;;;;5053170;28;20025;-79
2022/03/28 01:12:22;;;;;;;5.43;2.72;;;;;;;;;;5055479;28;20040;-74
2022/03/28 01:15:07;;;;;;;7.90;3.50;;;;;;;;;;5048628;28;20546;-72
2022/03/28 01:20:27;;;;;;;9.25;3.28;;;;;;;;;;5057899;28;20040;-73
2022/03/28 01:22:53;;;;;;;7.07;2.60;;;;;;;;;;5054981;28;20036;-73
2022/03/28 01:25:26;;;;;;;7.80;2.65;;;;;;;;;;5057352;28;20032;-77
2022/03/28 01:27:57;;;;;;;6.30;2.67;;;;;;;;;;5050861;28;20158;-72
2022/03/28 01:30:24;;;;;;;3.75;2.38;;;;;;;;;;5055881;28;20063;-72
2022/03/28 01:32:51;;;;;;;6.53;2.28;;;;;;;;;;5057591;28;20106;-73
2022/03/28 01:35:36;;;;;;;3.53;2.50;;;;;;;;;;5057486;28;20075;-73
2022/03/28 01:38:16;;;;;;;4.28;2.30;;;;;;;;;;5050546;28;20052;-72
2022/03/28 01:40:45;;;;;;;8.18;2.50;;;;;;;;;;5055328;28;20032;-73
2022/03/28 01:43:11;;;;;;;5.60;2.35;;;;;;;;;;5054492;28;20743;-74
2022/03/28 01:45:43;;;;;;;7.57;2.38;;;;;;;;;;5055322;28;20348;-75
2022/03/28 01:48:20;;;;;;;8.73;2.40;;;;;;;;;;5055773;28;20112;-71
2022/03/28 01:50:47;;;;;;;5.60;2.30;;;;;;;;;;5055962;28;20025;-71
2022/03/28 01:53:13;;;;;;;4.43;2.10;;;;;;;;;;5055402;28;20091;-73
2022/03/28 01:55:39;;;;;;;4.10;2.30;;;;;;;;;;5038955;28;20040;-74
2022/03/28 01:58:08;;;;;;;8.23;2.42;;;;;;;;;;5054029;28;20037;-74
2022/03/28 02:00:35;;;;;;;5.43;2.00;;;;;;;;;;5056921;28;20429;-73
2022/03/28 02:03:03;;;;;;;3.17;2.15;;;;;;;;;;5054958;28;20029;-73
2022/03/28 02:05:29;;;;;;;5.95;2.47;;;;;;;;;;5050967;28;20032;-75
2022/03/28 02:08:02;;;;;;;5.00;2.28;;;;;;;;;;5054031;28;20029;-72
2022/03/28 02:10:28;;;;;;;4.65;2.30;;;;;;;;;;5050738;28;20096;-72
2022/03/28 02:12:54;;;;;;;3.58;2.20;;;;;;;;;;5054762;28;20021;-74
2022/03/28 02:15:21;;;;;;;6.65;2.38;;;;;;;;;;5055659;28;20029;-72
2022/03/28 02:17:50;;;;;;;4.15;2.20;;;;;;;;;;5053976;28;20093;-72
2022/03/28 02:20:50;;;;;;;4.13;1.90;;;;;;;;;;5054249;28;20487;-72
2022/03/28 02:23:16;;;;;;;2.92;2.30;;;;;;;;;;4971909;28;20109;-72
2022/03/28 02:25:45;;;;;;;2.63;2.05;;;;;;;;;;4973009;28;20031;-72
2022/03/28 02:28:14;;;;;;;7.03;2.28;;;;;;;;;;4972859;28;20035;-73
2022/03/28 02:30:42;;;;;;;2.75;2.20;;;;;;;;;;4973313;28;20384;-73
2022/03/28 02:33:21;;;;;;;5.05;2.20;;;;;;;;;;4971872;28;20477;-71
2022/03/28 02:35:47;;;;;;;5.03;2.22;;;;;;;;;;4972035;28;20134;-74
2022/03/28 02:38:15;;;;;;;5.97;2.10;;;;;;;;;;4972618;28;20074;-72
2022/03/28 02:40:44;;;;;;;3.25;2.10;;;;;;;;;;4975031;28;20046;-72
2022/03/28 02:43:10;;;;;;;4.30;2.40;;;;;;;;;;4975719;28;20031;-75
2022/03/28 02:45:37;;;;;;;3.42;2.10;;;;;;;;;;4973389;28;20035;-70
2022/03/28 02:48:04;;;;;;;4.95;2.40;;;;;;;;;;4972233;28;20081;-74
2022/03/28 02:50:33;;;;;;;3.92;2.70;;;;;;;;;;4973177;28;20065;-74
2022/03/28 02:53:02;;;;;;;4.68;2.58;;;;;;;;;;4972208;28;20066;-74
2022/03/28 02:55:28;;;;;;;5.72;2.63;;;;;;;;;;4973150;28;20058;-71
2022/03/28 02:57:54;;;;;;;5.60;3.13;;;;;;;;;;4973003;28;20134;-72
2022/03/28 03:00:23;;;;;;;6.05;2.80;;;;;;;;;;5036059;28;20410;-71
2022/03/28 03:02:52;;;;;;;3.38;2.55;;;;;;;;;;5052512;28;20108;-71
2022/03/28 03:05:18;;;;;;;3.60;2.83;;;;;;;;;;5053457;28;20060;-71
2022/03/28 03:07:49;;;;;;;4.47;2.80;;;;;;;;;;5052455;28;20033;-71
2022/03/28 03:10:15;;;;;;;4.65;3.03;;;;;;;;;;5033889;28;20033;-73
2022/03/28 03:12:43;;;;;;;4.28;3.00;;;;;;;;;;5052348;28;20146;-72
2022/03/28 03:15:09;;;;;;;6.50;3.20;;;;;;;;;;5052742;28;20055;-72
2022/03/28 03:17:36;;;;;;;6.45;2.80;;;;;;;;;;5054016;28;20036;-72
2022/03/28 03:20:04;;;;;;;7.38;2.88;;;;;;;;;;5052385;28;20041;-72
2022/03/28 03:22:30;;;;;;;7.55;3.60;;;;;;;;;;5051110;28;20044;-70
2022/03/28 03:24:56;;;;;;;8.57;3.28;;;;;;;;;;5052743;28;20075;-71
2022/03/28 03:27:23;;;;;;;10.95;3.75;;;;;;;;;;5052754;28;20033;-72
2022/03/28 03:29:52;;;;;;;12.35;3.75;;;;;;;;;;5053730;28;20025;-72
2022/03/28 03:32:19;;;;;;;8.60;4.00;;;;;;;;;;5052230;28;20029;-72
2022/03/28 03:34:45;;;;;;;8.27;3.10;;;;;;;;;;5053473;28;20124;-72
2022/03/28 03:37:11;;;;;;;12.15;3.20;;;;;;;;;;5057654;28;20440;-73
2022/03/28 03:39:37;;;;;;;10.55;3.15;;;;;;;;;;5052802;28;20037;-71
2022/03/28 03:42:03;;;;;;;11.60;3.45;;;;;;;;;;5053252;28;20025;-72
2022/03/28 03:44:31;;;;;;;11.75;3.15;;;;;;;;;;5035755;28;20025;-72
2022/03/28 03:46:57;;;;;;;12.02;3.15;;;;;;;;;;5052888;28;20021;-71
2022/03/28 03:49:23;;;;;;;10.30;3.30;;;;;;;;;;5051420;28;20470;-72
2022/03/28 03:51:51;;;;;;;7.50;3.35;;;;;;;;;;5053490;28;20082;-72
2022/03/28 03:54:17;;;;;;;11.38;3.55;;;;;;;;;;5051316;28;20055;-71
2022/03/28 03:56:43;;;;;;;9.88;3.83;;;;;;;;;;5052171;28;20053;-71
2022/03/28 03:59:10;;;;;;;8.80;4.05;;;;;;;;;;5036972;28;20508;-72
2022/03/28 04:01:36;;;;;;;7.50;3.15;;;;;;;;;;5040803;28;20025;-74
2022/03/28 04:04:02;;;;;;;10.38;3.30;;;;;;;;;;5052857;28;20028;-71
2022/03/28 04:06:28;;;;;;;8.25;3.50;;;;;;;;;;5051742;28;20033;-72
2022/03/28 04:08:54;;;;;;;6.50;3.17;;;;;;;;;;5052076;28;20033;-72
2022/03/28 04:11:20;;;;;;;14.93;3.67;;;;;;;;;;5052164;28;20470;-71
2022/03/28 04:13:46;;;;;;;7.28;3.53;;;;;;;;;;5034010;28;20077;-70
2022/03/28 04:16:12;;;;;;;8.25;3.60;;;;;;;;;;5052037;28;20033;-70
2022/03/28 04:18:39;;;;;;;8.68;3.40;;;;;;;;;;5051286;28;20040;-71
2022/03/28 04:21:05;;;;;;;6.82;3.15;;;;;;;;;;5051306;28;20102;-71
2022/03/28 04:23:31;;;;;;;21.52;4.25;;;;;;;;;;5051041;28;20025;-71
2022/03/28 04:25:57;;;;;;;11.35;3.35;;;;;;;;;;5052240;28;20032;-72
2022/03/28 04:28:24;;;;;;;20.63;5.93;;;;;;;;;;5052143;28;20479;-72
2022/03/28 04:30:51;;;;;;;72.55;10.30;;;;;;;;;;5050166;28;20075;-72
2022/03/28 04:33:18;;;;;;;25.67;7.93;;;;;;;;;;5051930;28;20033;-72
2022/03/28 04:35:45;;;;;;;6.90;5.22;;;;;;;;;;5052187;28;20477;-71
2022/03/28 04:38:11;;;;;;;37.33;7.25;;;;;;;;;;5051535;28;20053;-72
2022/03/28 04:40:37;;;;;;;15.02;4.93;;;;;;;;;;5052033;28;20029;-73
2022/03/28 04:43:05;;;;;;;19.50;6.18;;;;;;;;;;5053210;28;20481;-74
2022/03/28 04:45:32;;;;;;;24.80;6.10;;;;;;;;;;5035086;28;20032;-72
2022/03/28 04:47:58;;;;;;;12.50;4.35;;;;;;;;;;5037570;28;20040;-71
2022/03/28 04:50:25;;;;;;;6.80;4.15;;;;;;;;;;5037838;28;20502;-71
2022/03/28 04:52:51;;;;;;;12.70;4.05;;;;;;;;;;5036746;28;20028;-71
2022/03/28 04:55:17;;;;;;;18.08;5.07;;;;;;;;;;5055324;28;20028;-72
2022/03/28 04:57:43;;;;;;;19.42;6.35;;;;;;;;;;5055205;28;20033;-72
2022/03/28 05:00:10;;;;;;;57.38;8.55;;;;;;;;;;5055757;28;20029;-70
2022/03/28 05:02:37;;;;;;;47.38;8.52;;;;;;;;;;5055888;28;20071;-71
2022/03/28 05:05:04;;;;;;;23.17;6.50;;;;;;;;;;5055644;28;20034;-71
2022/03/28 05:07:30;;;;;;;14.98;5.95;;;;;;;;;;5054217;28;20074;-72
2022/03/28 05:09:57;;;;;;;23.35;6.32;;;;;;;;;;5055343;28;20072;-71
2022/03/28 05:12:24;;;;;;;16.27;5.90;;;;;;;;;;5055109;28;20028;-71
2022/03/28 05:14:51;;;;;;;17.90;5.82;;;;;;;;;;5054914;28;20107;-71
2022/03/28 05:17:23;;;;;;;23.90;5.50;;;;;;;;;;5055841;28;20025;-72
2022/03/28 05:19:50;;;;;;;15.32;5.07;;;;;;;;;;5036785;28;20048;-72
2022/03/28 05:22:16;;;;;;;48.53;7.13;;;;;;;;;;5055112;28;20033;-71
2022/03/28 05:24:42;;;;;;;17.60;7.22;;;;;;;;;;5054424;28;20032;-72
2022/03/28 05:27:08;;;;;;;15.13;8.25;;;;;;;;;;5054639;28;20029;-72
2022/03/28 05:29:37;;;;;;;22.58;10.05;;;;;;;;;;5053125;28;20478;-73
2022/03/28 05:32:04;;;;;;;17.15;8.20;;;;;;;;;;5048220;28;20025;-73
2022/03/28 05:34:31;;;;;;;30.13;7.88;;;;;;;;;;5052556;28;20474;-69
2022/03/28 05:37:01;;;;;;;25.42;7.32;;;;;;;;;;5056537;28;20056;-75
2022/03/28 05:39:27;;;;;;;21.23;8.07;;;;;;;;;;5054294;28;20083;-74
2022/03/28 05:41:53;;;;;;;29.10;8.43;;;;;;;;;;5053686;28;20108;-71
2022/03/28 05:44:20;;;;;;;29.70;7.05;;;;;;;;;;5053157;28;20032;-70
2022/03/28 05:46:48;;;;;;;12.27;5.05;;;;;;;;;;5053346;28;20390;-69
2022/03/28 05:49:14;;;;;;;13.23;5.30;;;;;;;;;;5053057;28;20032;-70
2022/03/28 05:51:41;;;;;;;15.00;4.78;;;;;;;;;;5054326;28;20120;-72
2022/03/28 05:54:07;;;;;;;10.98;4.93;;;;;;;;;;5054349;28;20029;-70
2022/03/28 05:56:33;;;;;;;9.00;4.72;;;;;;;;;;5035383;28;20041;-71
2022/03/28 05:59:02;;;;;;;12.57;4.60;;;;;;;;;;5048695;28;20045;-73
2022/03/28 06:01:29;;;;;;;8.02;4.20;;;;;;;;;;5052414;28;20063;-72
2022/03/28 06:03:55;;;;;;;19.15;5.00;;;;;;;;;;5030131;28;20505;-73
2022/03/28 06:06:21;;;;;;;8.75;4.03;;;;;;;;;;5050736;28;20098;-72
2022/03/28 06:08:47;;;;;;;11.52;3.63;;;;;;;;;;5051245;28;20479;-73
2022/03/28 06:11:13;;;;;;;19.63;4.10;;;;;;;;;;5052975;28;20067;-72
2022/03/28 06:13:39;;;;;;;16.08;3.95;;;;;;;;;;5052180;28;20130;-79
2022/03/28 06:16:05;;;;;;;32.42;4.68;;;;;;;;;;5052921;28;20117;-76
2022/03/28 06:18:32;;;;;;;9.52;4.03;;;;;;;;;;5051745;28;20040;-87
2022/03/28 06:20:58;;;;;;;23.08;4.80;;;;;;;;;;5033386;28;20573;-69
2022/03/28 06:23:24;;;;;;;27.45;7.15;;;;;;;;;;5048273;28;20029;-68
2022/03/28 06:25:50;;;;;;;36.05;8.52;;;;;;;;;;5050711;28;20039;-71
2022/03/28 06:28:16;;;;;;;23.40;7.18;;;;;;;;;;5052505;28;20033;-68
2022/03/28 06:30:42;;;;;;;13.07;4.75;;;;;;;;;;5052455;28;20036;-72
2022/03/28 06:33:11;;;;;;;20.30;5.70;;;;;;;;;;5034452;28;20029;-70
2022/03/28 06:35:41;;;;;;;10.75;4.03;;;;;;;;;;5053510;28;20114;-70
2022/03/28 06:38:07;;;;;;;11.27;3.97;;;;;;;;;;5032726;28;20463;-70
2022/03/28 06:40:33;;;;;;;28.17;6.95;;;;;;;;;;5049128;28;20024;-69
2022/03/28 06:42:59;;;;;;;17.23;6.25;;;;;;;;;;5045117;28;20096;-71
2022/03/28 06:45:26;;;;;;;22.05;6.10;;;;;;;;;;5034508;28;20025;-70
2022/03/28 06:47:52;;;;;;;11.15;4.95;;;;;;;;;;5034833;28;20029;-69
2022/03/28 06:50:19;;;;;;;11.10;4.88;;;;;;;;;;5053214;28;20024;-70
2022/03/28 06:52:46;;;;;;;35.80;6.85;;;;;;;;;;5051758;28;20178;-69
2022/03/28 06:55:12;;;;;;;14.05;5.10;;;;;;;;;;5034714;28;20375;-70
2022/03/28 06:57:39;;;;;;;18.00;6.50;;;;;;;;;;5052081;28;20029;-70
2022/03/28 07:00:06;;;;;;;18.85;5.68;;;;;;;;;;5034563;28;20075;-70
2022/03/28 07:02:32;;;;;;;21.30;6.57;;;;;;;;;;5052043;28;20541;-70
2022/03/28 07:04:58;;;;;;;18.63;6.43;;;;;;;;;;5052077;28;20043;-69
2022/03/28 07:07:24;;;;;;;17.48;6.25;;;;;;;;;;5052038;28;20024;-70
2022/03/28 07:09:50;;;;;;;16.02;6.60;;;;;;;;;;5050576;28;20021;-71
2022/03/28 07:12:16;;;;;;;10.88;5.00;;;;;;;;;;5050080;28;20036;-70
2022/03/28 07:14:43;;;;;;;11.05;5.47;;;;;;;;;;5048762;28;20013;-69
2022/03/28 07:17:09;;;;;;;10.63;4.70;;;;;;;;;;5051827;28;20059;-70
2022/03/28 07:19:36;;;;;;;16.70;5.30;;;;;;;;;;5051810;28;20029;-71
2022/03/28 07:22:03;;;;;;;12.30;5.20;;;;;;;;;;5051897;28;20433;-70
2022/03/28 07:24:29;;;;;;;29.45;5.90;;;;;;;;;;5045929;28;20053;-72
2022/03/28 07:26:55;;;;;;;12.35;5.30;;;;;;;;;;5050813;28;20052;-71
2022/03/28 07:29:21;;;;;;;8.52;4.95;;;;;;;;;;5047985;28;20048;-70
2022/03/28 07:31:50;;;;;;;12.45;5.28;;;;;;;;;;5046272;28;20429;-79
2022/03/28 07:37:09;;;;;;;11.60;4.75;;;;;;;;;;5051270;28;20095;-70
2022/03/28 07:39:37;;;;;;;13.52;4.82;;;;;;;;;;5049411;28;20124;-72
2022/03/28 07:42:04;;;;;;;14.75;5.18;;;;;;;;;;5047770;28;20070;-70
2022/03/28 07:44:30;;;;;;;11.23;4.78;;;;;;;;;;5031144;28;20461;-70
2022/03/28 07:46:56;;;;;;;21.17;5.57;;;;;;;;;;5049317;28;20067;-70
2022/03/28 07:49:24;;;;;;;12.30;5.13;;;;;;;;;;5044991;28;20033;-71
2022/03/28 07:51:51;;;;;;;13.88;4.50;;;;;;;;;;5031088;28;20347;-69
2022/03/28 07:54:17;;;;;;;16.27;4.85;;;;;;;;;;5050461;28;20471;-70
2022/03/28 07:56:43;;;;;;;11.32;4.50;;;;;;;;;;5052241;28;20419;-69
2022/03/28 07:59:09;;;;;;;13.27;4.60;;;;;;;;;;5051133;28;20414;-70
2022/03/28 08:01:35;;;;;;;11.88;4.65;;;;;;;;;;5051785;28;20079;-72
2022/03/28 08:04:01;;;;;;;16.48;4.93;;;;;;;;;;5049190;28;20025;-69
2022/03/28 08:06:28;;;;;;;14.30;5.20;;;;;;;;;;5049948;28;20174;-71
2022/03/28 08:08:54;;;;;;;11.95;5.30;;;;;;;;;;5034308;28;20478;-69
2022/03/28 08:11:23;;;;;;;16.60;5.75;;;;;;;;;;5034061;28;20039;-72
2022/03/28 08:13:49;;;;;;;14.15;5.22;;;;;;;;;;5033575;28;20028;-71
2022/03/28 08:16:16;;;;;;;11.75;5.30;;;;;;;;;;5051494;28;20497;-70
2022/03/28 08:18:42;;;;;;;12.30;5.40;;;;;;;;;;5051673;28;20470;-71
2022/03/28 08:21:08;;;;;;;11.20;5.05;;;;;;;;;;5049257;28;20024;-71
2022/03/28 08:23:35;;;;;;;15.40;4.72;;;;;;;;;;5041580;28;20116;-71
2022/03/28 08:26:01;;;;;;;11.13;4.65;;;;;;;;;;5020513;28;20033;-73
2022/03/28 08:28:27;;;;;;;8.73;4.63;;;;;;;;;;5041777;28;20033;-72
2022/03/28 08:30:53;;;;;;;12.98;4.00;;;;;;;;;;5050882;28;20029;-70
2022/03/28 08:33:20;;;;;;;10.15;4.22;;;;;;;;;;5050894;28;20056;-75
2022/03/28 08:35:46;;;;;;;11.48;4.03;;;;;;;;;;5051363;28;20029;-71
2022/03/28 08:38:12;;;;;;;11.55;4.20;;;;;;;;;;5049849;28;20049;-71
2022/03/28 08:40:41;;;;;;;10.90;3.70;;;;;;;;;;5050816;28;20126;-69
2022/03/28 08:43:08;;;;;;;5.43;3.45;;;;;;;;;;5051801;28;20068;-69
2022/03/28 08:45:38;;;;;;;14.77;3.67;;;;;;;;;;5052125;28;20021;-71
2022/03/28 08:48:05;;;;;;;43.45;5.40;;;;;;;;;;5033435;28;20025;-70
2022/03/28 08:50:32;;;;;;;10.15;3.63;;;;;;;;;;5050773;28;20043;-71
2022/03/28 08:52:58;;;;;;;6.55;3.60;;;;;;;;;;5051238;28;20037;-69
2022/03/28 08:55:25;;;;;;;8.98;3.58;;;;;;;;;;5050040;28;20036;-72
2022/03/28 08:57:51;;;;;;;6.45;3.10;;;;;;;;;;5051708;28;20463;-71
2022/03/28 09:00:17;;;;;;;7.40;3.53;;;;;;;;;;5051071;28;20041;-69
2022/03/28 09:02:52;;;;;;;8.85;3.22;;;;;;;;;;5050901;28;20028;-72
2022/03/28 09:05:28;;;;;;;10.20;3.72;;;;;;;;;;5048611;28;20028;-74
2022/03/28 09:07:58;;;;;;;8.30;3.45;;;;;;;;;;5052640;28;20025;-73
2022/03/28 09:10:24;;;;;;;6.68;3.50;;;;;;;;;;5045977;28;20032;-69
2022/03/28 09:13:19;;;;;;;5.07;3.35;;;;;;;;;;5045357;28;20497;-70
2022/03/28 09:15:51;;;;;;;21.92;3.63;;;;;;;;;;5043864;28;20067;-73
2022/03/28 09:18:21;;;;;;;28.73;4.27;;;;;;;;;;5052971;28;20037;-69
2022/03/28 09:20:51;;;;;;;6.55;2.90;;;;;;;;;;5052662;28;20277;-70
2022/03/28 09:23:30;;;;;;;8.40;3.28;;;;;;;;;;5047282;28;20037;-71
2022/03/28 09:25:56;;;;;;;4.72;3.05;;;;;;;;;;5056522;28;20040;-71
2022/03/28 09:28:39;;;;;;;4.53;3.22;;;;;;;;;;5054619;28;20048;-72
2022/03/28 09:31:35;;;;;;;5.57;2.97;;;;;;;;;;5049367;28;20530;-72
2022/03/28 09:34:03;;;;;;;7.70;3.03;;;;;;;;;;4958865;28;20039;-72
2022/03/28 09:36:51;;;;;;;5.68;2.70;;;;;;;;;;4955735;29;20031;-73
2022/03/28 09:39:18;;;;;;;9.02;3.15;;;;;;;;;;4955175;28;20431;-71
2022/03/28 09:41:59;;;;;;;7.47;3.30;;;;;;;;;;4956386;29;20250;-71
2022/03/28 09:44:35;;;;;;;7.80;3.90;;;;;;;;;;4939080;29;20098;-70
2022/03/28 09:47:14;;;;;;;4.53;3.13;;;;;;;;;;4954361;29;20591;-72
2022/03/28 09:49:42;;;;;;;7.38;2.90;;;;;;;;;;4952839;28;20027;-71
2022/03/28 09:52:09;;;;;;;7.53;4.63;;;;;;;;;;4939303;29;20038;-69
2022/03/28 09:54:50;;;;;;;12.40;3.25;;;;;;;;;;4953661;29;20046;-70
2022/03/28 09:57:18;;;;;;;6.15;3.22;;;;;;;;;;4953766;29;20082;-70
2022/03/28 09:59:48;;;;;;;26.48;5.18;;;;;;;;;;4952774;29;20043;-70
2022/03/28 10:02:17;;;;;;;7.97;3.65;;;;;;;;;;4952551;28;20488;-70
2022/03/28 10:04:49;;;;;;;10.48;4.95;;;;;;;;;;4952705;29;20436;-70
2022/03/28 10:07:15;;;;;;;7.47;3.95;;;;;;;;;;4954958;29;20027;-71
2022/03/28 10:09:42;;;;;;;10.32;5.00;;;;;;;;;;4974668;28;20025;-70
2022/03/28 10:12:08;;;;;;;11.35;4.03;;;;;;;;;;5052396;28;20128;-71
2022/03/28 10:14:36;;;;;;;7.75;3.55;;;;;;;;;;5054573;28;20052;-70
2022/03/28 10:17:03;;;;;;;6.72;3.63;;;;;;;;;;5034565;28;20509;-74
2022/03/28 10:19:32;;;;;;;7.13;3.90;;;;;;;;;;5049501;28;20092;-69
2022/03/28 10:22:02;;;;;;;10.02;3.83;;;;;;;;;;5050767;28;20021;-69
2022/03/28 10:24:29;;;;;;;5.47;3.20;;;;;;;;;;5054322;28;20028;-70
2022/03/28 10:27:00;;;;;;;8.23;3.60;;;;;;;;;;5051138;28;20471;-70
2022/03/28 10:29:34;;;;;;;6.32;4.05;;;;;;;;;;5050382;28;20072;-71
2022/03/28 10:32:01;;;;;;;11.98;4.60;;;;;;;;;;5052691;28;20045;-70
2022/03/28 10:34:39;;;;;;;7.10;4.22;;;;;;;;;;5053337;28;20025;-69
2022/03/28 10:37:24;;;;;;;7.90;3.83;;;;;;;;;;5052490;28;20049;-70
2022/03/28 10:39:50;;;;;;;7.03;3.95;;;;;;;;;;5053431;28;20033;-70
2022/03/28 10:42:18;;;;;;;6.20;3.83;;;;;;;;;;5052860;28;20025;-69
2022/03/28 10:44:59;;;;;;;6.43;3.53;;;;;;;;;;5052898;28;20419;-70
2022/03/28 10:47:44;;;;;;;10.25;3.70;;;;;;;;;;5053376;28;20116;-71
2022/03/28 10:50:17;;;;;;;9.90;3.78;;;;;;;;;;5053925;28;20095;-69
2022/03/28 10:53:02;;;;;;;7.85;3.35;;;;;;;;;;5053240;28;20134;-69
2022/03/28 10:55:38;;;;;;;5.32;3.20;;;;;;;;;;5053767;28;20052;-69
2022/03/28 10:58:19;;;;;;;5.55;3.00;;;;;;;;;;5046389;28;20463;-70
2022/03/28 11:01:18;;;;;;;8.43;3.22;;;;;;;;;;5048999;28;20104;-69
2022/03/28 11:04:02;;;;;;;6.15;3.13;;;;;;;;;;4966952;28;20433;-69
2022/03/28 11:06:49;;;;;;;9.13;3.50;;;;;;;;;;4972104;28;20106;-70
2022/03/28 11:09:15;;;;;;;5.30;3.30;;;;;;;;;;4973015;28;20033;-71
2022/03/28 11:11:57;;;;;;;6.68;3.60;;;;;;;;;;4976768;28;20031;-76
2022/03/28 11:14:41;;;;;;;7.20;3.40;;;;;;;;;;4973616;28;20053;-74
2022/03/28 11:17:16;;;;;;;7.63;3.40;;;;;;;;;;4971809;28;20030;-72
2022/03/28 11:19:54;;;;;;;6.28;2.95;;;;;;;;;;4971496;28;20130;-72
2022/03/28 11:22:38;;;;;;;3.65;2.60;;;;;;;;;;4971435;28;20023;-70
2022/03/28 11:25:04;;;;;;;10.45;3.08;;;;;;;;;;4969036;28;20619;-70
2022/03/28 11:27:37;;;;;;;5.43;3.30;;;;;;;;;;4971221;28;20146;-71
2022/03/28 11:30:16;;;;;;;5.38;3.10;;;;;;;;;;4972407;28;20042;-71
2022/03/28 11:32:47;;;;;;;4.78;2.88;;;;;;;;;;4972477;28;20042;-72
2022/03/28 11:35:16;;;;;;;19.27;7.32;;;;;;;;;;4971546;28;20556;-69
2022/03/28 11:37:42;;;;;;;6.00;3.40;;;;;;;;;;4958606;28;20146;-70
2022/03/28 11:40:10;;;;;;;8.05;3.42;;;;;;;;;;4998265;28;20078;-73
2022/03/28 11:42:36;;;;;;;8.57;2.92;;;;;;;;;;5012635;28;20030;-72
2022/03/28 11:45:08;;;;;;;10.32;3.30;;;;;;;;;;5012037;28;20608;-73
2022/03/28 11:47:35;;;;;;;6.55;3.20;;;;;;;;;;5013048;28;20091;-69
2022/03/28 11:50:03;;;;;;;5.32;2.60;;;;;;;;;;5026983;28;20033;-72
2022/03/28 11:52:30;;;;;;;7.25;3.05;;;;;;;;;;5008519;28;20026;-70
2022/03/28 11:54:57;;;;;;;7.63;2.65;;;;;;;;;;5011879;28;20074;-69
2022/03/28 12:00:15;;;;;;;6.13;2.90;;;;;;;;;;5013929;28;20173;-68
2022/03/28 12:02:51;;;;;;;10.50;2.75;;;;;;;;;;5013834;28;20026;-71
2022/03/28 12:05:26;;;;;;;12.95;3.15;;;;;;;;;;5012433;28;20036;-69
2022/03/28 12:07:53;;;;;;;5.30;2.55;;;;;;;;;;5009125;28;20168;-70
2022/03/28 12:10:22;;;;;;;6.50;2.72;;;;;;;;;;5015954;28;20025;-68
2022/03/28 12:12:49;;;;;;;18.85;3.58;;;;;;;;;;5016499;28;20026;-68
2022/03/28 12:15:23;;;;;;;9.43;3.00;;;;;;;;;;5029771;28;20032;-69
2022/03/28 12:17:57;;;;;;;5.18;2.70;;;;;;;;;;5006412;28;20859;-70
2022/03/28 12:20:24;;;;;;;4.45;2.45;;;;;;;;;;5003672;28;20072;-72
2022/03/28 12:22:50;;;;;;;4.55;2.92;;;;;;;;;;5011646;28;20499;-74
2022/03/28 12:25:23;;;;;;;5.63;2.60;;;;;;;;;;4995827;28;20069;-70
2022/03/28 12:27:57;;;;;;;8.25;3.00;;;;;;;;;;5012815;28;20029;-73
2022/03/28 12:30:30;;;;;;;11.30;2.90;;;;;;;;;;5011340;28;20026;-70
2022/03/28 12:32:57;;;;;;;3.85;2.50;;;;;;;;;;5011116;28;20451;-72
2022/03/28 12:35:23;;;;;;;7.50;2.80;;;;;;;;;;5010843;28;20392;-71
2022/03/28 12:37:56;;;;;;;9.75;2.90;;;;;;;;;;5037475;28;20045;-72
2022/03/28 12:40:26;;;;;;;10.65;3.03;;;;;;;;;;5052070;28;20025;-73
2022/03/28 12:42:52;;;;;;;16.63;4.25;;;;;;;;;;5053260;28;20163;-73
2022/03/28 12:45:18;;;;;;;35.67;4.55;;;;;;;;;;5054578;28;20025;-72
2022/03/28 12:47:55;;;;;;;7.75;2.92;;;;;;;;;;5051705;28;20028;-71
2022/03/28 12:50:23;;;;;;;4.55;2.65;;;;;;;;;;5033004;28;20051;-71
2022/03/28 12:52:49;;;;;;;9.88;3.00;;;;;;;;;;5051077;28;20029;-72
2022/03/28 12:55:24;;;;;;;9.18;3.22;;;;;;;;;;5032067;28;20032;-71
2022/03/28 12:57:52;;;;;;;15.25;3.55;;;;;;;;;;5051941;28;20025;-71
2022/03/28 13:00:26;;;;;;;5.68;3.03;;;;;;;;;;5024958;28;20047;-72
2022/03/28 13:02:53;;;;;;;4.53;2.50;;;;;;;;;;5052161;28;20020;-73
2022/03/28 13:05:19;;;;;;;6.97;3.20;;;;;;;;;;5051809;28;20485;-73
2022/03/28 13:07:47;;;;;;;13.10;3.15;;;;;;;;;;5054195;28;20021;-71
2022/03/28 13:10:20;;;;;;;4.43;2.78;;;;;;;;;;5053850;28;20036;-72
2022/03/28 13:12:47;;;;;;;4.57;2.72;;;;;;;;;;5038146;28;20029;-70
2022/03/28 13:15:17;;;;;;;9.23;3.10;;;;;;;;;;5055366;28;20021;-70
2022/03/28 13:17:48;;;;;;;5.95;2.88;;;;;;;;;;5054424;28;20414;-73
2022/03/28 13:20:20;;;;;;;6.55;3.10;;;;;;;;;;5058780;28;20032;-73
2022/03/28 13:22:47;;;;;;;10.85;3.38;;;;;;;;;;5054952;28;20116;-72
2022/03/28 13:25:17;;;;;;;8.48;2.95;;;;;;;;;;5037444;28;20386;-75
2022/03/28 13:28:05;;;;;;;5.72;3.13;;;;;;;;;;5053293;28;20033;-71
2022/03/28 13:30:35;;;;;;;9.93;3.15;;;;;;;;;;5055336;28;20013;-72
2022/03/28 13:33:02;;;;;;;27.38;4.38;;;;;;;;;;5054753;28;20120;-71
2022/03/28 13:35:28;;;;;;;7.75;2.65;;;;;;;;;;5055008;28;20033;-72
2022/03/28 13:38:01;;;;;;;7.57;2.70;;;;;;;;;;5054084;28;20051;-70
2022/03/28 13:40:28;;;;;;;9.25;3.00;;;;;;;;;;5054844;28;20029;-71
2022/03/28 13:42:59;;;;;;;18.08;3.53;;;;;;;;;;5053318;28;20017;-71
2022/03/28 13:45:25;;;;;;;7.75;2.83;;;;;;;;;;5049196;28;20110;-74
2022/03/28 13:47:51;;;;;;;7.15;2.78;;;;;;;;;;5051724;28;20384;-71
2022/03/28 13:50:18;;;;;;;6.07;2.80;;;;;;;;;;5053748;28;20087;-72
2022/03/28 13:52:44;;;;;;;6.97;2.90;;;;;;;;;;5054499;28;20032;-73
2022/03/28 13:55:19;;;;;;;29.55;3.85;;;;;;;;;;5051985;28;20355;-69
2022/03/28 13:57:45;;;;;;;10.38;3.40;;;;;;;;;;5035954;28;20033;-69
2022/03/28 14:00:16;;;;;;;7.75;3.25;;;;;;;;;;5053005;28;20040;-70
2022/03/28 14:02:43;;;;;;;7.28;2.70;;;;;;;;;;5035984;28;20025;-70
2022/03/28 14:05:09;;;;;;;28.13;4.70;;;;;;;;;;5054034;28;20037;-71
2022/03/28 14:07:35;;;;;;;13.25;3.40;;;;;;;;;;5053808;28;20433;-70
2022/03/28 14:10:02;;;;;;;6.57;3.10;;;;;;;;;;5054861;28;20466;-72
2022/03/28 14:12:29;;;;;;;4.97;3.13;;;;;;;;;;5036183;28;20040;-72
2022/03/28 14:14:56;;;;;;;21.95;4.05;;;;;;;;;;5060208;28;20154;-69
2022/03/28 14:17:22;;;;;;;10.27;3.00;;;;;;;;;;5051716;28;20017;-70
2022/03/28 14:19:49;;;;;;;12.90;3.17;;;;;;;;;;5054577;28;20108;-72
2022/03/28 14:22:15;;;;;;;6.68;3.15;;;;;;;;;;5053309;28;20029;-72
2022/03/28 14:24:42;;;;;;;4.35;2.63;;;;;;;;;;5056349;28;20051;-71
2022/03/28 14:27:08;;;;;;;8.52;3.20;;;;;;;;;;5054091;28;20078;-70
2022/03/28 14:29:34;;;;;;;10.20;3.35;;;;;;;;;;5054319;28;20040;-71
2022/03/28 14:32:01;;;;;;;104.45;8.02;;;;;;;;;;5054769;28;20021;-70
2022/03/28 14:34:27;;;;;;;21.33;4.07;;;;;;;;;;5057413;28;20040;-73
2022/03/28 14:36:53;;;;;;;10.70;3.17;;;;;;;;;;5057040;28;20041;-71
2022/03/28 14:39:19;;;;;;;6.38;3.25;;;;;;;;;;5059284;28;20037;-72
2022/03/28 14:41:45;;;;;;;11.93;3.40;;;;;;;;;;5058424;28;20031;-70
2022/03/28 14:44:11;;;;;;;6.32;2.80;;;;;;;;;;5056679;28;20513;-70
2022/03/28 14:49:22;;;;;;;6.38;2.92;;;;;;;;;;5054543;28;20616;-71
2022/03/28 14:51:49;;;;;;;6.35;3.00;;;;;;;;;;5034250;28;20021;-70
2022/03/28 14:54:15;;;;;;;4.57;2.92;;;;;;;;;;5057688;28;20032;-73
2022/03/28 14:56:41;;;;;;;5.82;3.15;;;;;;;;;;5057528;28;20032;-74
2022/03/28 14:59:08;;;;;;;18.38;3.75;;;;;;;;;;5052816;28;20396;-70